sensor_id;sensor_type;location;lat;lon;timestamp;P1;durP1;ratioP1;P2;durP2;ratioP2
21959;SDS011;11144;43.030;25.108;2022-07-18T00:00:26;4.90;;;0.85;;
21959;SDS011;11144;43.030;25.108;2022-07-18T00:01:59;6.10;;;0.88;;
21959;SDS011;11144;43.030;25.108;2022-07-18T00:03:34;2.90;;;0.90;;
21959;SDS011;11144;43.030;25.108;2022-07-18T00:05:07;4.60;;;1.10;;
21959;SDS011;11144;43.030;25.108;2022-07-18T00:06:42;7.10;;;0.93;;
21959;SDS011;11144;43.030;25.108;2022-07-18T00:08:16;5.30;;;1.02;;
21959;SDS011;11144;43.030;25.108;2022-07-18T00:09:49;6.72;;;0.80;;
21959;SDS011;11144;43.030;25.108;2022-07-18T00:11:22;8.18;;;1.00;;
21959;SDS011;11144;43.030;25.108;2022-07-18T00:12:56;6.28;;;0.95;;
21959;SDS011;11144;43.030;25.108;2022-07-18T00:14:29;3.25;;;0.75;;
21959;SDS011;11144;43.030;25.108;2022-07-18T00:16:03;3.22;;;0.90;;
21959;SDS011;11144;43.030;25.108;2022-07-18T00:17:37;8.18;;;1.15;;
21959;SDS011;11144;43.030;25.108;2022-07-18T00:19:11;2.92;;;1.00;;
21959;SDS011;11144;43.030;25.108;2022-07-18T00:20:43;1.35;;;0.57;;
21959;SDS011;11144;43.030;25.108;2022-07-18T00:22:18;4.70;;;1.00;;
21959;SDS011;11144;43.030;25.108;2022-07-18T00:23:51;2.83;;;0.70;;
21959;SDS011;11144;43.030;25.108;2022-07-18T00:25:25;3.97;;;0.68;;
21959;SDS011;11144;43.030;25.108;2022-07-18T00:26:58;2.40;;;0.82;;
21959;SDS011;11144;43.030;25.108;2022-07-18T00:28:31;6.00;;;1.17;;
21959;SDS011;11144;43.030;25.108;2022-07-18T00:30:07;5.65;;;0.90;;
21959;SDS011;11144;43.030;25.108;2022-07-18T00:31:42;3.85;;;0.85;;
21959;SDS011;11144;43.030;25.108;2022-07-18T00:33:14;3.03;;;0.80;;
21959;SDS011;11144;43.030;25.108;2022-07-18T00:34:48;3.58;;;1.20;;
21959;SDS011;11144;43.030;25.108;2022-07-18T00:36:21;2.95;;;0.77;;
21959;SDS011;11144;43.030;25.108;2022-07-18T00:37:55;3.95;;;0.80;;
21959;SDS011;11144;43.030;25.108;2022-07-18T00:39:28;1.75;;;0.95;;
21959;SDS011;11144;43.030;25.108;2022-07-18T00:41:01;5.35;;;1.00;;
21959;SDS011;11144;43.030;25.108;2022-07-18T00:42:35;3.75;;;0.93;;
21959;SDS011;11144;43.030;25.108;2022-07-18T00:44:15;2.35;;;0.85;;
21959;SDS011;11144;43.030;25.108;2022-07-18T00:45:49;6.18;;;1.67;;
21959;SDS011;11144;43.030;25.108;2022-07-18T00:47:24;2.15;;;0.75;;
21959;SDS011;11144;43.030;25.108;2022-07-18T00:48:57;4.80;;;0.82;;
21959;SDS011;11144;43.030;25.108;2022-07-18T00:50:31;5.15;;;0.82;;
21959;SDS011;11144;43.030;25.108;2022-07-18T00:52:04;4.28;;;0.90;;
21959;SDS011;11144;43.030;25.108;2022-07-18T00:53:39;1.55;;;0.68;;
21959;SDS011;11144;43.030;25.108;2022-07-18T00:55:12;2.15;;;0.90;;
21959;SDS011;11144;43.030;25.108;2022-07-18T00:56:48;2.83;;;1.10;;
21959;SDS011;11144;43.030;25.108;2022-07-18T00:58:21;4.78;;;1.30;;
21959;SDS011;11144;43.030;25.108;2022-07-18T00:59:55;4.63;;;0.82;;
21959;SDS011;11144;43.030;25.108;2022-07-18T01:01:46;4.75;;;1.00;;
21959;SDS011;11144;43.030;25.108;2022-07-18T01:03:19;3.33;;;0.98;;
21959;SDS011;11144;43.030;25.108;2022-07-18T01:04:53;1.77;;;0.90;;
21959;SDS011;11144;43.030;25.108;2022-07-18T01:06:27;1.90;;;0.90;;
21959;SDS011;11144;43.030;25.108;2022-07-18T01:08:00;2.15;;;0.90;;
21959;SDS011;11144;43.030;25.108;2022-07-18T01:09:35;4.07;;;0.80;;
21959;SDS011;11144;43.030;25.108;2022-07-18T01:11:09;5.50;;;0.77;;
21959;SDS011;11144;43.030;25.108;2022-07-18T01:12:41;3.45;;;1.00;;
21959;SDS011;11144;43.030;25.108;2022-07-18T01:14:15;5.18;;;0.95;;
21959;SDS011;11144;43.030;25.108;2022-07-18T01:15:49;6.63;;;1.00;;
21959;SDS011;11144;43.030;25.108;2022-07-18T01:17:22;2.25;;;0.90;;
21959;SDS011;11144;43.030;25.108;2022-07-18T01:18:56;1.63;;;0.95;;
21959;SDS011;11144;43.030;25.108;2022-07-18T01:20:30;4.78;;;1.80;;
21959;SDS011;11144;43.030;25.108;2022-07-18T01:22:04;3.33;;;1.15;;
21959;SDS011;11144;43.030;25.108;2022-07-18T01:23:37;5.38;;;0.98;;
21959;SDS011;11144;43.030;25.108;2022-07-18T01:25:11;3.58;;;1.08;;
21959;SDS011;11144;43.030;25.108;2022-07-18T01:26:47;4.22;;;0.80;;
21959;SDS011;11144;43.030;25.108;2022-07-18T01:28:20;3.65;;;1.05;;
21959;SDS011;11144;43.030;25.108;2022-07-18T01:29:53;2.58;;;0.90;;
21959;SDS011;11144;43.030;25.108;2022-07-18T01:31:26;3.10;;;0.75;;
21959;SDS011;11144;43.030;25.108;2022-07-18T01:33:02;3.55;;;1.08;;
21959;SDS011;11144;43.030;25.108;2022-07-18T01:34:35;2.67;;;0.90;;
21959;SDS011;11144;43.030;25.108;2022-07-18T01:36:10;2.17;;;0.70;;
21959;SDS011;11144;43.030;25.108;2022-07-18T01:37:44;3.78;;;0.88;;
21959;SDS011;11144;43.030;25.108;2022-07-18T01:39:17;3.03;;;0.95;;
21959;SDS011;11144;43.030;25.108;2022-07-18T01:40:50;3.97;;;1.30;;
21959;SDS011;11144;43.030;25.108;2022-07-18T01:42:27;6.05;;;1.20;;
21959;SDS011;11144;43.030;25.108;2022-07-18T01:44:00;5.20;;;2.30;;
21959;SDS011;11144;43.030;25.108;2022-07-18T01:45:34;6.75;;;2.42;;
21959;SDS011;11144;43.030;25.108;2022-07-18T01:47:09;7.13;;;2.30;;
21959;SDS011;11144;43.030;25.108;2022-07-18T01:48:43;9.70;;;1.98;;
21959;SDS011;11144;43.030;25.108;2022-07-18T01:50:16;7.53;;;1.67;;
21959;SDS011;11144;43.030;25.108;2022-07-18T01:51:51;8.80;;;1.98;;
21959;SDS011;11144;43.030;25.108;2022-07-18T01:53:26;4.30;;;1.58;;
21959;SDS011;11144;43.030;25.108;2022-07-18T01:54:59;6.22;;;2.20;;
21959;SDS011;11144;43.030;25.108;2022-07-18T01:56:33;6.70;;;1.65;;
21959;SDS011;11144;43.030;25.108;2022-07-18T01:58:06;5.25;;;1.33;;
21959;SDS011;11144;43.030;25.108;2022-07-18T01:59:40;7.15;;;2.28;;
21959;SDS011;11144;43.030;25.108;2022-07-18T02:01:12;7.88;;;2.00;;
21959;SDS011;11144;43.030;25.108;2022-07-18T02:02:46;7.20;;;1.65;;
21959;SDS011;11144;43.030;25.108;2022-07-18T02:04:19;9.85;;;1.38;;
21959;SDS011;11144;43.030;25.108;2022-07-18T02:06:13;3.47;;;1.25;;
21959;SDS011;11144;43.030;25.108;2022-07-18T02:07:47;13.90;;;1.13;;
21959;SDS011;11144;43.030;25.108;2022-07-18T02:09:20;5.85;;;1.35;;
21959;SDS011;11144;43.030;25.108;2022-07-18T02:10:54;11.30;;;1.35;;
21959;SDS011;11144;43.030;25.108;2022-07-18T02:12:27;5.25;;;1.30;;
21959;SDS011;11144;43.030;25.108;2022-07-18T02:13:59;10.63;;;1.38;;
21959;SDS011;11144;43.030;25.108;2022-07-18T02:15:33;10.65;;;1.33;;
21959;SDS011;11144;43.030;25.108;2022-07-18T02:17:07;10.90;;;1.10;;
21959;SDS011;11144;43.030;25.108;2022-07-18T02:18:40;11.02;;;1.30;;
21959;SDS011;11144;43.030;25.108;2022-07-18T02:20:14;8.45;;;1.42;;
21959;SDS011;11144;43.030;25.108;2022-07-18T02:21:48;4.43;;;1.00;;
21959;SDS011;11144;43.030;25.108;2022-07-18T02:23:21;2.83;;;1.02;;
21959;SDS011;11144;43.030;25.108;2022-07-18T02:24:55;5.00;;;0.82;;
21959;SDS011;11144;43.030;25.108;2022-07-18T02:26:28;4.80;;;1.25;;
21959;SDS011;11144;43.030;25.108;2022-07-18T02:28:02;2.58;;;1.15;;
21959;SDS011;11144;43.030;25.108;2022-07-18T02:29:36;3.75;;;1.10;;
21959;SDS011;11144;43.030;25.108;2022-07-18T02:31:09;3.85;;;1.27;;
21959;SDS011;11144;43.030;25.108;2022-07-18T02:32:42;4.25;;;1.30;;
21959;SDS011;11144;43.030;25.108;2022-07-18T02:34:16;3.42;;;0.95;;
21959;SDS011;11144;43.030;25.108;2022-07-18T02:35:49;2.60;;;1.63;;
21959;SDS011;11144;43.030;25.108;2022-07-18T02:37:23;6.20;;;1.00;;
21959;SDS011;11144;43.030;25.108;2022-07-18T02:38:57;4.28;;;1.00;;
21959;SDS011;11144;43.030;25.108;2022-07-18T02:40:31;5.30;;;1.08;;
21959;SDS011;11144;43.030;25.108;2022-07-18T02:42:04;3.53;;;1.08;;
21959;SDS011;11144;43.030;25.108;2022-07-18T02:43:38;4.72;;;0.90;;
21959;SDS011;11144;43.030;25.108;2022-07-18T02:45:11;3.78;;;1.30;;
21959;SDS011;11144;43.030;25.108;2022-07-18T02:46:44;3.80;;;0.90;;
21959;SDS011;11144;43.030;25.108;2022-07-18T02:48:18;2.58;;;1.08;;
21959;SDS011;11144;43.030;25.108;2022-07-18T02:49:50;2.05;;;0.77;;
21959;SDS011;11144;43.030;25.108;2022-07-18T02:51:23;2.63;;;0.80;;
21959;SDS011;11144;43.030;25.108;2022-07-18T02:52:57;1.00;;;0.70;;
21959;SDS011;11144;43.030;25.108;2022-07-18T02:54:33;1.70;;;0.90;;
21959;SDS011;11144;43.030;25.108;2022-07-18T02:56:08;3.03;;;0.88;;
21959;SDS011;11144;43.030;25.108;2022-07-18T02:57:41;1.30;;;0.80;;
21959;SDS011;11144;43.030;25.108;2022-07-18T02:59:15;3.08;;;0.90;;
21959;SDS011;11144;43.030;25.108;2022-07-18T03:00:47;2.20;;;0.90;;
21959;SDS011;11144;43.030;25.108;2022-07-18T03:02:21;2.97;;;0.80;;
21959;SDS011;11144;43.030;25.108;2022-07-18T03:03:54;2.05;;;0.80;;
21959;SDS011;11144;43.030;25.108;2022-07-18T03:05:29;5.22;;;0.80;;
21959;SDS011;11144;43.030;25.108;2022-07-18T03:07:02;7.63;;;1.70;;
21959;SDS011;11144;43.030;25.108;2022-07-18T03:08:36;3.55;;;1.00;;
21959;SDS011;11144;43.030;25.108;2022-07-18T03:10:11;6.70;;;1.45;;
21959;SDS011;11144;43.030;25.108;2022-07-18T03:11:44;12.95;;;1.17;;
21959;SDS011;11144;43.030;25.108;2022-07-18T03:13:16;11.27;;;1.85;;
21959;SDS011;11144;43.030;25.108;2022-07-18T03:14:50;13.55;;;1.52;;
21959;SDS011;11144;43.030;25.108;2022-07-18T03:16:24;14.55;;;1.75;;
21959;SDS011;11144;43.030;25.108;2022-07-18T03:17:56;12.20;;;2.05;;
21959;SDS011;11144;43.030;25.108;2022-07-18T03:19:30;14.02;;;2.60;;
21959;SDS011;11144;43.030;25.108;2022-07-18T03:21:04;14.20;;;2.25;;
21959;SDS011;11144;43.030;25.108;2022-07-18T03:22:38;21.52;;;2.80;;
21959;SDS011;11144;43.030;25.108;2022-07-18T03:24:11;18.42;;;3.15;;
21959;SDS011;11144;43.030;25.108;2022-07-18T03:25:46;28.77;;;3.33;;
21959;SDS011;11144;43.030;25.108;2022-07-18T03:27:20;13.70;;;2.22;;
21959;SDS011;11144;43.030;25.108;2022-07-18T03:28:54;9.18;;;2.10;;
21959;SDS011;11144;43.030;25.108;2022-07-18T03:30:28;8.82;;;1.70;;
21959;SDS011;11144;43.030;25.108;2022-07-18T03:32:01;14.80;;;1.92;;
21959;SDS011;11144;43.030;25.108;2022-07-18T03:33:34;6.85;;;1.48;;
21959;SDS011;11144;43.030;25.108;2022-07-18T03:35:07;8.75;;;1.50;;
21959;SDS011;11144;43.030;25.108;2022-07-18T03:36:41;4.05;;;1.10;;
21959;SDS011;11144;43.030;25.108;2022-07-18T03:38:14;4.95;;;1.27;;
21959;SDS011;11144;43.030;25.108;2022-07-18T03:39:47;4.70;;;0.82;;
21959;SDS011;11144;43.030;25.108;2022-07-18T03:41:22;3.67;;;1.10;;
21959;SDS011;11144;43.030;25.108;2022-07-18T03:42:56;4.90;;;1.52;;
21959;SDS011;11144;43.030;25.108;2022-07-18T03:44:29;2.75;;;0.82;;
21959;SDS011;11144;43.030;25.108;2022-07-18T03:46:03;2.08;;;1.25;;
21959;SDS011;11144;43.030;25.108;2022-07-18T03:47:36;4.28;;;0.90;;
21959;SDS011;11144;43.030;25.108;2022-07-18T03:49:09;3.85;;;1.15;;
21959;SDS011;11144;43.030;25.108;2022-07-18T03:50:42;4.65;;;1.25;;
21959;SDS011;11144;43.030;25.108;2022-07-18T03:52:14;3.22;;;1.30;;
21959;SDS011;11144;43.030;25.108;2022-07-18T03:53:48;16.23;;;1.52;;
21959;SDS011;11144;43.030;25.108;2022-07-18T03:55:22;5.80;;;1.10;;
21959;SDS011;11144;43.030;25.108;2022-07-18T03:56:56;2.33;;;1.30;;
21959;SDS011;11144;43.030;25.108;2022-07-18T03:58:29;2.95;;;1.55;;
21959;SDS011;11144;43.030;25.108;2022-07-18T04:00:03;3.60;;;1.65;;
21959;SDS011;11144;43.030;25.108;2022-07-18T04:01:42;7.07;;;1.50;;
21959;SDS011;11144;43.030;25.108;2022-07-18T04:03:15;3.90;;;1.63;;
21959;SDS011;11144;43.030;25.108;2022-07-18T04:04:51;8.18;;;1.88;;
21959;SDS011;11144;43.030;25.108;2022-07-18T04:06:24;5.90;;;2.08;;
21959;SDS011;11144;43.030;25.108;2022-07-18T04:07:58;5.90;;;2.35;;
21959;SDS011;11144;43.030;25.108;2022-07-18T04:09:31;7.30;;;2.00;;
21959;SDS011;11144;43.030;25.108;2022-07-18T04:11:04;6.75;;;1.55;;
21959;SDS011;11144;43.030;25.108;2022-07-18T04:12:45;6.95;;;1.92;;
21959;SDS011;11144;43.030;25.108;2022-07-18T04:14:18;9.43;;;2.10;;
21959;SDS011;11144;43.030;25.108;2022-07-18T04:15:51;9.75;;;1.98;;
21959;SDS011;11144;43.030;25.108;2022-07-18T04:17:24;5.07;;;1.70;;
21959;SDS011;11144;43.030;25.108;2022-07-18T04:18:57;6.55;;;1.67;;
21959;SDS011;11144;43.030;25.108;2022-07-18T04:20:31;7.03;;;1.90;;
21959;SDS011;11144;43.030;25.108;2022-07-18T04:22:04;5.75;;;1.90;;
21959;SDS011;11144;43.030;25.108;2022-07-18T04:23:38;9.70;;;1.88;;
21959;SDS011;11144;43.030;25.108;2022-07-18T04:25:11;10.30;;;2.08;;
21959;SDS011;11144;43.030;25.108;2022-07-18T04:26:45;10.90;;;2.28;;
21959;SDS011;11144;43.030;25.108;2022-07-18T04:28:20;10.70;;;2.20;;
21959;SDS011;11144;43.030;25.108;2022-07-18T04:29:53;7.32;;;1.48;;
21959;SDS011;11144;43.030;25.108;2022-07-18T04:31:25;6.65;;;1.70;;
21959;SDS011;11144;43.030;25.108;2022-07-18T04:33:00;6.75;;;2.28;;
21959;SDS011;11144;43.030;25.108;2022-07-18T04:34:34;6.10;;;1.38;;
21959;SDS011;11144;43.030;25.108;2022-07-18T04:36:07;11.20;;;1.88;;
21959;SDS011;11144;43.030;25.108;2022-07-18T04:37:40;7.35;;;1.48;;
21959;SDS011;11144;43.030;25.108;2022-07-18T04:39:14;7.60;;;1.80;;
21959;SDS011;11144;43.030;25.108;2022-07-18T04:40:48;7.47;;;1.75;;
21959;SDS011;11144;43.030;25.108;2022-07-18T04:42:21;4.38;;;1.40;;
21959;SDS011;11144;43.030;25.108;2022-07-18T04:43:56;3.60;;;1.63;;
21959;SDS011;11144;43.030;25.108;2022-07-18T04:45:29;7.60;;;1.33;;
21959;SDS011;11144;43.030;25.108;2022-07-18T04:47:03;4.28;;;1.75;;
21959;SDS011;11144;43.030;25.108;2022-07-18T04:48:36;9.68;;;2.08;;
21959;SDS011;11144;43.030;25.108;2022-07-18T04:50:10;5.00;;;1.92;;
21959;SDS011;11144;43.030;25.108;2022-07-18T04:51:42;8.13;;;1.98;;
21959;SDS011;11144;43.030;25.108;2022-07-18T04:53:16;5.38;;;1.52;;
21959;SDS011;11144;43.030;25.108;2022-07-18T04:54:49;3.58;;;1.27;;
21959;SDS011;11144;43.030;25.108;2022-07-18T04:56:22;11.75;;;1.70;;
21959;SDS011;11144;43.030;25.108;2022-07-18T04:57:55;10.90;;;3.05;;
21959;SDS011;11144;43.030;25.108;2022-07-18T04:59:30;5.35;;;1.35;;
21959;SDS011;11144;43.030;25.108;2022-07-18T05:01:08;7.32;;;1.70;;
21959;SDS011;11144;43.030;25.108;2022-07-18T05:02:42;4.35;;;1.23;;
21959;SDS011;11144;43.030;25.108;2022-07-18T05:04:17;3.72;;;1.35;;
21959;SDS011;11144;43.030;25.108;2022-07-18T05:05:51;3.90;;;1.20;;
21959;SDS011;11144;43.030;25.108;2022-07-18T05:07:24;3.90;;;1.40;;
21959;SDS011;11144;43.030;25.108;2022-07-18T05:08:58;3.95;;;1.15;;
21959;SDS011;11144;43.030;25.108;2022-07-18T05:10:31;2.90;;;1.23;;
21959;SDS011;11144;43.030;25.108;2022-07-18T05:12:05;4.45;;;1.45;;
21959;SDS011;11144;43.030;25.108;2022-07-18T05:13:38;6.47;;;1.17;;
21959;SDS011;11144;43.030;25.108;2022-07-18T05:15:14;4.18;;;1.08;;
21959;SDS011;11144;43.030;25.108;2022-07-18T05:16:48;5.70;;;1.20;;
21959;SDS011;11144;43.030;25.108;2022-07-18T05:18:22;2.72;;;0.90;;
21959;SDS011;11144;43.030;25.108;2022-07-18T05:19:55;5.30;;;1.15;;
21959;SDS011;11144;43.030;25.108;2022-07-18T05:21:29;3.55;;;1.30;;
21959;SDS011;11144;43.030;25.108;2022-07-18T05:23:03;2.47;;;0.90;;
21959;SDS011;11144;43.030;25.108;2022-07-18T05:24:36;5.63;;;1.10;;
21959;SDS011;11144;43.030;25.108;2022-07-18T05:26:09;10.43;;;1.45;;
21959;SDS011;11144;43.030;25.108;2022-07-18T05:27:43;6.95;;;1.20;;
21959;SDS011;11144;43.030;25.108;2022-07-18T05:29:16;6.30;;;1.40;;
21959;SDS011;11144;43.030;25.108;2022-07-18T05:30:51;2.92;;;1.38;;
21959;SDS011;11144;43.030;25.108;2022-07-18T05:32:26;8.18;;;1.48;;
21959;SDS011;11144;43.030;25.108;2022-07-18T05:33:59;4.65;;;1.35;;
21959;SDS011;11144;43.030;25.108;2022-07-18T05:35:33;5.10;;;1.20;;
21959;SDS011;11144;43.030;25.108;2022-07-18T05:37:07;12.18;;;1.63;;
21959;SDS011;11144;43.030;25.108;2022-07-18T05:38:40;6.68;;;1.35;;
21959;SDS011;11144;43.030;25.108;2022-07-18T05:40:14;6.40;;;1.65;;
21959;SDS011;11144;43.030;25.108;2022-07-18T05:41:48;3.05;;;1.10;;
21959;SDS011;11144;43.030;25.108;2022-07-18T05:43:21;3.85;;;0.90;;
21959;SDS011;11144;43.030;25.108;2022-07-18T05:44:55;2.92;;;0.80;;
21959;SDS011;11144;43.030;25.108;2022-07-18T05:46:30;3.20;;;0.95;;
21959;SDS011;11144;43.030;25.108;2022-07-18T05:48:05;2.92;;;0.88;;
21959;SDS011;11144;43.030;25.108;2022-07-18T05:49:37;2.72;;;1.10;;
21959;SDS011;11144;43.030;25.108;2022-07-18T05:51:11;3.50;;;0.90;;
21959;SDS011;11144;43.030;25.108;2022-07-18T05:52:45;4.25;;;0.85;;
21959;SDS011;11144;43.030;25.108;2022-07-18T05:54:18;3.13;;;0.80;;
21959;SDS011;11144;43.030;25.108;2022-07-18T05:55:52;3.53;;;0.82;;
21959;SDS011;11144;43.030;25.108;2022-07-18T05:57:25;3.20;;;0.85;;
21959;SDS011;11144;43.030;25.108;2022-07-18T05:58:59;3.38;;;0.82;;
21959;SDS011;11144;43.030;25.108;2022-07-18T06:00:33;8.23;;;0.90;;
21959;SDS011;11144;43.030;25.108;2022-07-18T06:02:08;8.00;;;1.50;;
21959;SDS011;11144;43.030;25.108;2022-07-18T06:03:42;3.00;;;0.65;;
21959;SDS011;11144;43.030;25.108;2022-07-18T06:05:15;9.93;;;1.17;;
21959;SDS011;11144;43.030;25.108;2022-07-18T06:06:54;5.45;;;0.80;;
21959;SDS011;11144;43.030;25.108;2022-07-18T06:08:27;5.43;;;0.80;;
21959;SDS011;11144;43.030;25.108;2022-07-18T06:10:01;6.65;;;0.90;;
21959;SDS011;11144;43.030;25.108;2022-07-18T06:11:35;2.92;;;0.90;;
21959;SDS011;11144;43.030;25.108;2022-07-18T06:13:09;2.63;;;0.88;;
21959;SDS011;11144;43.030;25.108;2022-07-18T06:14:42;2.10;;;0.65;;
21959;SDS011;11144;43.030;25.108;2022-07-18T06:16:15;4.78;;;0.80;;
21959;SDS011;11144;43.030;25.108;2022-07-18T06:17:50;3.10;;;0.80;;
21959;SDS011;11144;43.030;25.108;2022-07-18T06:19:24;7.20;;;1.00;;
21959;SDS011;11144;43.030;25.108;2022-07-18T06:20:57;0.88;;;0.60;;
21959;SDS011;11144;43.030;25.108;2022-07-18T06:22:31;6.75;;;1.10;;
21959;SDS011;11144;43.030;25.108;2022-07-18T06:24:04;1.80;;;0.68;;
21959;SDS011;11144;43.030;25.108;2022-07-18T06:25:39;4.47;;;0.70;;
21959;SDS011;11144;43.030;25.108;2022-07-18T06:27:12;5.82;;;1.10;;
21959;SDS011;11144;43.030;25.108;2022-07-18T06:28:45;2.25;;;1.08;;
21959;SDS011;11144;43.030;25.108;2022-07-18T06:30:19;4.03;;;0.85;;
21959;SDS011;11144;43.030;25.108;2022-07-18T06:31:55;2.47;;;0.80;;
21959;SDS011;11144;43.030;25.108;2022-07-18T06:33:29;6.68;;;1.00;;
21959;SDS011;11144;43.030;25.108;2022-07-18T06:35:03;2.85;;;0.90;;
21959;SDS011;11144;43.030;25.108;2022-07-18T06:36:37;4.28;;;1.08;;
21959;SDS011;11144;43.030;25.108;2022-07-18T06:38:11;5.03;;;0.90;;
21959;SDS011;11144;43.030;25.108;2022-07-18T06:39:44;4.45;;;1.27;;
21959;SDS011;11144;43.030;25.108;2022-07-18T06:41:18;6.82;;;1.08;;
21959;SDS011;11144;43.030;25.108;2022-07-18T06:42:52;5.30;;;1.20;;
21959;SDS011;11144;43.030;25.108;2022-07-18T06:44:26;8.13;;;1.58;;
21959;SDS011;11144;43.030;25.108;2022-07-18T06:45:59;5.32;;;1.65;;
21959;SDS011;11144;43.030;25.108;2022-07-18T06:47:33;5.00;;;1.38;;
21959;SDS011;11144;43.030;25.108;2022-07-18T06:49:08;8.15;;;1.17;;
21959;SDS011;11144;43.030;25.108;2022-07-18T06:50:42;8.23;;;0.80;;
21959;SDS011;11144;43.030;25.108;2022-07-18T06:52:17;5.13;;;0.93;;
21959;SDS011;11144;43.030;25.108;2022-07-18T06:53:50;8.00;;;1.13;;
21959;SDS011;11144;43.030;25.108;2022-07-18T06:55:24;3.83;;;0.90;;
21959;SDS011;11144;43.030;25.108;2022-07-18T06:56:57;4.38;;;1.08;;
21959;SDS011;11144;43.030;25.108;2022-07-18T06:58:31;3.10;;;1.63;;
21959;SDS011;11144;43.030;25.108;2022-07-18T07:00:05;8.00;;;1.40;;
21959;SDS011;11144;43.030;25.108;2022-07-18T07:01:40;7.05;;;1.70;;
21959;SDS011;11144;43.030;25.108;2022-07-18T07:03:14;7.28;;;1.20;;
21959;SDS011;11144;43.030;25.108;2022-07-18T07:04:49;5.85;;;2.20;;
21959;SDS011;11144;43.030;25.108;2022-07-18T07:06:23;3.55;;;1.08;;
21959;SDS011;11144;43.030;25.108;2022-07-18T07:07:56;3.25;;;1.13;;
21959;SDS011;11144;43.030;25.108;2022-07-18T07:09:30;2.17;;;1.00;;
21959;SDS011;11144;43.030;25.108;2022-07-18T07:11:03;1.70;;;1.00;;
21959;SDS011;11144;43.030;25.108;2022-07-18T07:12:38;3.63;;;1.10;;
21959;SDS011;11144;43.030;25.108;2022-07-18T07:14:12;3.88;;;1.08;;
21959;SDS011;11144;43.030;25.108;2022-07-18T07:15:45;3.30;;;1.30;;
21959;SDS011;11144;43.030;25.108;2022-07-18T07:17:19;11.25;;;1.23;;
21959;SDS011;11144;43.030;25.108;2022-07-18T07:18:54;3.17;;;0.98;;
21959;SDS011;11144;43.030;25.108;2022-07-18T07:20:28;2.33;;;1.15;;
21959;SDS011;11144;43.030;25.108;2022-07-18T07:22:02;2.53;;;1.13;;
21959;SDS011;11144;43.030;25.108;2022-07-18T07:23:35;33.70;;;3.28;;
21959;SDS011;11144;43.030;25.108;2022-07-18T07:25:09;4.88;;;1.20;;
21959;SDS011;11144;43.030;25.108;2022-07-18T07:26:42;3.15;;;1.27;;
21959;SDS011;11144;43.030;25.108;2022-07-18T07:28:16;6.07;;;1.40;;
21959;SDS011;11144;43.030;25.108;2022-07-18T07:29:50;4.97;;;1.25;;
21959;SDS011;11144;43.030;25.108;2022-07-18T07:31:23;6.78;;;1.85;;
21959;SDS011;11144;43.030;25.108;2022-07-18T07:32:57;10.77;;;1.90;;
21959;SDS011;11144;43.030;25.108;2022-07-18T07:34:31;6.45;;;1.52;;
21959;SDS011;11144;43.030;25.108;2022-07-18T07:36:06;6.65;;;1.40;;
21959;SDS011;11144;43.030;25.108;2022-07-18T07:37:40;4.18;;;1.42;;
21959;SDS011;11144;43.030;25.108;2022-07-18T07:39:15;5.30;;;1.67;;
21959;SDS011;11144;43.030;25.108;2022-07-18T07:40:49;5.40;;;1.42;;
21959;SDS011;11144;43.030;25.108;2022-07-18T07:42:24;7.03;;;1.70;;
21959;SDS011;11144;43.030;25.108;2022-07-18T07:43:57;7.75;;;1.40;;
21959;SDS011;11144;43.030;25.108;2022-07-18T07:45:30;3.83;;;1.60;;
21959;SDS011;11144;43.030;25.108;2022-07-18T07:47:04;4.05;;;1.80;;
21959;SDS011;11144;43.030;25.108;2022-07-18T07:48:38;11.10;;;1.65;;
21959;SDS011;11144;43.030;25.108;2022-07-18T07:50:11;4.65;;;2.00;;
21959;SDS011;11144;43.030;25.108;2022-07-18T07:51:46;10.23;;;2.47;;
21959;SDS011;11144;43.030;25.108;2022-07-18T07:53:20;5.88;;;1.77;;
21959;SDS011;11144;43.030;25.108;2022-07-18T07:54:54;4.60;;;1.90;;
21959;SDS011;11144;43.030;25.108;2022-07-18T07:56:27;9.68;;;2.10;;
21959;SDS011;11144;43.030;25.108;2022-07-18T07:58:00;3.60;;;1.90;;
21959;SDS011;11144;43.030;25.108;2022-07-18T07:59:36;5.80;;;1.58;;
21959;SDS011;11144;43.030;25.108;2022-07-18T08:01:10;3.80;;;1.90;;
21959;SDS011;11144;43.030;25.108;2022-07-18T08:02:51;5.15;;;2.05;;
21959;SDS011;11144;43.030;25.108;2022-07-18T08:04:30;4.50;;;1.80;;
21959;SDS011;11144;43.030;25.108;2022-07-18T08:06:04;4.07;;;2.05;;
21959;SDS011;11144;43.030;25.108;2022-07-18T08:07:39;5.78;;;2.03;;
21959;SDS011;11144;43.030;25.108;2022-07-18T08:09:12;9.52;;;2.20;;
21959;SDS011;11144;43.030;25.108;2022-07-18T08:10:46;9.75;;;2.22;;
21959;SDS011;11144;43.030;25.108;2022-07-18T08:12:20;4.68;;;2.15;;
21959;SDS011;11144;43.030;25.108;2022-07-18T08:13:53;3.70;;;2.22;;
21959;SDS011;11144;43.030;25.108;2022-07-18T08:15:27;7.70;;;2.10;;
21959;SDS011;11144;43.030;25.108;2022-07-18T08:17:00;8.35;;;2.35;;
21959;SDS011;11144;43.030;25.108;2022-07-18T08:18:34;3.20;;;1.75;;
21959;SDS011;11144;43.030;25.108;2022-07-18T08:20:08;6.90;;;1.95;;
21959;SDS011;11144;43.030;25.108;2022-07-18T08:21:42;5.35;;;2.00;;
21959;SDS011;11144;43.030;25.108;2022-07-18T08:23:17;6.88;;;2.03;;
21959;SDS011;11144;43.030;25.108;2022-07-18T08:24:51;6.00;;;1.77;;
21959;SDS011;11144;43.030;25.108;2022-07-18T08:26:24;6.50;;;2.10;;
21959;SDS011;11144;43.030;25.108;2022-07-18T08:27:58;5.50;;;1.73;;
21959;SDS011;11144;43.030;25.108;2022-07-18T08:29:31;6.18;;;2.03;;
21959;SDS011;11144;43.030;25.108;2022-07-18T08:31:25;9.98;;;2.38;;
21959;SDS011;11144;43.030;25.108;2022-07-18T08:32:59;5.10;;;2.65;;
21959;SDS011;11144;43.030;25.108;2022-07-18T08:34:33;9.25;;;3.20;;
21959;SDS011;11144;43.030;25.108;2022-07-18T08:36:07;2.67;;;2.30;;
21959;SDS011;11144;43.030;25.108;2022-07-18T08:37:40;7.18;;;2.55;;
21959;SDS011;11144;43.030;25.108;2022-07-18T08:39:15;9.60;;;2.20;;
21959;SDS011;11144;43.030;25.108;2022-07-18T08:40:48;6.93;;;2.20;;
21959;SDS011;11144;43.030;25.108;2022-07-18T08:42:25;10.23;;;2.13;;
21959;SDS011;11144;43.030;25.108;2022-07-18T08:44:00;7.68;;;2.17;;
21959;SDS011;11144;43.030;25.108;2022-07-18T08:45:33;5.13;;;3.25;;
21959;SDS011;11144;43.030;25.108;2022-07-18T08:47:08;7.03;;;2.88;;
21959;SDS011;11144;43.030;25.108;2022-07-18T08:48:42;5.93;;;3.28;;
21959;SDS011;11144;43.030;25.108;2022-07-18T08:50:15;8.77;;;3.47;;
21959;SDS011;11144;43.030;25.108;2022-07-18T08:51:48;8.63;;;3.28;;
21959;SDS011;11144;43.030;25.108;2022-07-18T08:53:22;10.18;;;2.92;;
21959;SDS011;11144;43.030;25.108;2022-07-18T08:54:57;5.53;;;3.65;;
21959;SDS011;11144;43.030;25.108;2022-07-18T08:56:30;7.03;;;3.35;;
21959;SDS011;11144;43.030;25.108;2022-07-18T08:58:04;4.40;;;2.88;;
21959;SDS011;11144;43.030;25.108;2022-07-18T08:59:57;6.93;;;3.20;;
21959;SDS011;11144;43.030;25.108;2022-07-18T09:01:31;7.85;;;3.40;;
21959;SDS011;11144;43.030;25.108;2022-07-18T09:03:06;10.05;;;3.53;;
21959;SDS011;11144;43.030;25.108;2022-07-18T09:04:40;9.70;;;3.72;;
21959;SDS011;11144;43.030;25.108;2022-07-18T09:06:14;6.10;;;3.22;;
21959;SDS011;11144;43.030;25.108;2022-07-18T09:07:48;8.93;;;3.05;;
21959;SDS011;11144;43.030;25.108;2022-07-18T09:09:21;7.53;;;3.40;;
21959;SDS011;11144;43.030;25.108;2022-07-18T09:10:56;4.30;;;3.33;;
21959;SDS011;11144;43.030;25.108;2022-07-18T09:12:31;9.32;;;3.33;;
21959;SDS011;11144;43.030;25.108;2022-07-18T09:14:13;7.35;;;3.15;;
21959;SDS011;11144;43.030;25.108;2022-07-18T09:16:01;8.77;;;3.63;;
21959;SDS011;11144;43.030;25.108;2022-07-18T09:17:35;5.30;;;3.00;;